Chapelco, Argentina
Current Conditions -  °F | °C
As of 3:00 AM on Monday 24 Nov 2014 (Local Time) from SAZS Reporting Station
Scattered Clouds Scattered Clouds  
Wind Chill: 34°   Ceiling: Unl
Heat Index: 43°   Visibility: 6mi
Dew Point: 37°   Wind: 23mph
Humidity: 81%   Direction: 320°NW
Pressure: 29.88"   Gusts: NA
Location:  40.12°S, 71.22°W
Report Text: SAZS 240600Z 32020KT 9999 SCT018 06/03 Q1012
Loading
Personal Weather Stations






























Interactive Weather Map New forecast layout! Learn more

10-Day Weather Forecast

Advertisements
Track Severe Weather on mobile